Time;durP1;ratioP1;P1;durP2;ratioP2;P2;SDS_P1;SDS_P2;PMS_P1;PMS_P2;Temp;Humidity;BMP_temperature;BMP_pressure;BME280_temperature;BME280_humidity;BME280_pressure;Samples;Min_cycle;Max_cycle;Signal;HPM_P1;HPM_P2
2021/04/29 00:00:46;;;;;;;7.80;6.57;;;;;;;;;;5095561;28;20145;-56
2021/04/29 00:03:12;;;;;;;8.95;6.70;;;;;;;;;;5094926;28;20028;-57
2021/04/29 00:05:38;;;;;;;7.60;6.55;;;;;;;;;;5094842;28;20369;-57
2021/04/29 00:08:04;;;;;;;6.28;5.43;;;;;;;;;;5094821;28;20382;-56
2021/04/29 00:10:32;;;;;;;7.63;6.53;;;;;;;;;;5095030;28;20044;-57
2021/04/29 00:12:58;;;;;;;7.43;6.20;;;;;;;;;;5095410;28;20024;-56
2021/04/29 00:15:25;;;;;;;7.00;6.07;;;;;;;;;;5094991;28;20047;-57
2021/04/29 00:17:51;;;;;;;8.00;6.32;;;;;;;;;;5095151;28;20024;-56
2021/04/29 00:20:18;;;;;;;7.57;5.82;;;;;;;;;;5094847;28;20373;-57
2021/04/29 00:22:44;;;;;;;9.07;6.40;;;;;;;;;;5094826;28;20021;-57
2021/04/29 00:25:10;;;;;;;8.48;7.25;;;;;;;;;;5094840;28;20112;-57
2021/04/29 00:27:36;;;;;;;7.35;6.60;;;;;;;;;;5094665;28;20035;-57
2021/04/29 00:30:03;;;;;;;7.05;6.30;;;;;;;;;;5095367;28;20484;-56
2021/04/29 00:32:29;;;;;;;11.23;7.53;;;;;;;;;;5095188;28;20028;-56
2021/04/29 00:34:55;;;;;;;8.75;7.82;;;;;;;;;;5094612;28;20496;-57
2021/04/29 00:37:21;;;;;;;8.65;7.30;;;;;;;;;;5094480;28;20034;-56
2021/04/29 00:39:47;;;;;;;9.48;8.57;;;;;;;;;;5094804;28;20115;-56
2021/04/29 00:42:14;;;;;;;9.80;8.07;;;;;;;;;;5094476;28;20445;-56
2021/04/29 00:44:40;;;;;;;9.98;8.77;;;;;;;;;;5094807;28;20093;-56
2021/04/29 00:47:06;;;;;;;12.20;8.80;;;;;;;;;;5094757;28;20028;-56
2021/04/29 00:49:33;;;;;;;10.68;9.35;;;;;;;;;;5094692;28;20040;-56
2021/04/29 00:51:59;;;;;;;9.93;8.82;;;;;;;;;;5094219;28;20054;-56
2021/04/29 00:54:25;;;;;;;9.77;8.77;;;;;;;;;;5092715;28;20051;-57
2021/04/29 00:56:51;;;;;;;9.63;8.68;;;;;;;;;;5093734;28;20127;-56
2021/04/29 00:59:18;;;;;;;15.35;9.07;;;;;;;;;;5093495;28;20059;-57
2021/04/29 01:01:46;;;;;;;11.77;9.07;;;;;;;;;;5093886;28;20421;-57
2021/04/29 01:04:15;;;;;;;8.88;7.90;;;;;;;;;;5092740;28;20039;-56
2021/04/29 01:06:49;;;;;;;13.23;8.65;;;;;;;;;;5094465;28;20509;-56
2021/04/29 01:09:18;;;;;;;9.10;7.88;;;;;;;;;;5094158;28;20389;-56
2021/04/29 01:11:47;;;;;;;9.80;8.32;;;;;;;;;;5094542;28;20028;-57
2021/04/29 01:14:13;;;;;;;10.93;9.10;;;;;;;;;;5094250;28;20051;-56
2021/04/29 01:16:40;;;;;;;10.55;8.05;;;;;;;;;;5094289;28;20035;-57
2021/04/29 01:19:09;;;;;;;11.98;8.18;;;;;;;;;;5093758;28;20031;-57
2021/04/29 01:21:38;;;;;;;10.38;9.30;;;;;;;;;;5093895;28;20102;-57
2021/04/29 01:24:13;;;;;;;8.10;7.25;;;;;;;;;;5092794;28;20038;-57
2021/04/29 01:26:49;;;;;;;7.72;7.03;;;;;;;;;;5093289;28;20485;-57
2021/04/29 01:29:23;;;;;;;11.18;7.35;;;;;;;;;;5094130;28;20028;-57
2021/04/29 01:31:51;;;;;;;12.63;8.02;;;;;;;;;;5093416;28;20606;-57
2021/04/29 01:34:18;;;;;;;9.68;7.50;;;;;;;;;;5093134;28;20032;-56
2021/04/29 01:36:46;;;;;;;9.60;6.45;;;;;;;;;;5093808;28;20051;-57
2021/04/29 01:39:13;;;;;;;6.65;5.70;;;;;;;;;;5093780;28;20106;-56
2021/04/29 01:41:40;;;;;;;5.03;3.85;;;;;;;;;;5093332;28;20024;-56
2021/04/29 01:44:07;;;;;;;4.50;3.42;;;;;;;;;;5093315;28;20081;-56
2021/04/29 01:46:34;;;;;;;4.65;3.28;;;;;;;;;;5093473;28;20028;-57
2021/04/29 01:49:01;;;;;;;4.80;3.80;;;;;;;;;;5092414;28;20028;-56
2021/04/29 01:51:27;;;;;;;6.80;3.03;;;;;;;;;;5093261;28;20028;-56
2021/04/29 01:53:54;;;;;;;3.65;2.70;;;;;;;;;;5092954;28;20124;-56
2021/04/29 01:56:20;;;;;;;4.30;2.13;;;;;;;;;;5091835;28;20032;-56
2021/04/29 01:58:46;;;;;;;3.83;2.72;;;;;;;;;;5091783;28;20039;-56
2021/04/29 02:01:13;;;;;;;2.88;1.88;;;;;;;;;;5092984;28;20526;-56
2021/04/29 02:03:39;;;;;;;3.67;2.38;;;;;;;;;;5093185;28;20020;-57
2021/04/29 02:06:05;;;;;;;2.33;1.65;;;;;;;;;;5092967;28;20024;-56
2021/04/29 02:08:31;;;;;;;2.97;2.22;;;;;;;;;;5093081;28;20103;-56
2021/04/29 02:10:57;;;;;;;2.88;1.88;;;;;;;;;;5092467;28;20370;-57
2021/04/29 02:13:23;;;;;;;3.13;2.33;;;;;;;;;;5092092;28;20414;-56
2021/04/29 02:15:51;;;;;;;3.15;2.03;;;;;;;;;;5091920;28;20416;-56
2021/04/29 02:18:21;;;;;;;3.25;1.92;;;;;;;;;;5092086;28;20445;-59
2021/04/29 02:20:48;;;;;;;6.90;2.50;;;;;;;;;;5093526;28;20078;-59
2021/04/29 02:23:16;;;;;;;2.75;2.17;;;;;;;;;;5092049;28;20454;-58
2021/04/29 02:25:42;;;;;;;2.45;1.80;;;;;;;;;;5093278;28;20099;-59
2021/04/29 02:28:08;;;;;;;3.17;1.85;;;;;;;;;;5093117;28;20432;-59
2021/04/29 02:30:35;;;;;;;5.05;2.08;;;;;;;;;;5095139;28;20040;-58
2021/04/29 02:33:01;;;;;;;2.50;1.98;;;;;;;;;;5096859;28;20127;-59
2021/04/29 02:35:28;;;;;;;4.00;2.20;;;;;;;;;;5095595;28;20025;-59
2021/04/29 02:37:54;;;;;;;2.83;1.92;;;;;;;;;;5097188;28;20522;-59
2021/04/29 02:40:21;;;;;;;2.58;1.70;;;;;;;;;;5097055;28;20028;-59
2021/04/29 02:42:48;;;;;;;2.80;1.80;;;;;;;;;;5096844;28;20024;-59
2021/04/29 02:45:16;;;;;;;2.40;1.63;;;;;;;;;;5096709;28;20035;-59
2021/04/29 02:47:43;;;;;;;2.28;1.42;;;;;;;;;;5096730;28;20451;-59
2021/04/29 02:50:11;;;;;;;2.33;1.45;;;;;;;;;;5096202;28;20028;-59
2021/04/29 02:52:38;;;;;;;4.18;1.30;;;;;;;;;;5095771;28;20134;-59
2021/04/29 02:55:05;;;;;;;2.35;1.30;;;;;;;;;;5096497;28;20032;-59
2021/04/29 02:57:31;;;;;;;2.67;1.50;;;;;;;;;;5096457;28;20404;-59
2021/04/29 02:59:57;;;;;;;1.73;1.00;;;;;;;;;;5095628;28;20031;-59
2021/04/29 03:02:23;;;;;;;2.38;1.00;;;;;;;;;;5096553;28;20465;-59
2021/04/29 03:04:49;;;;;;;1.77;0.93;;;;;;;;;;5096512;28;20031;-58
2021/04/29 03:07:15;;;;;;;2.10;1.50;;;;;;;;;;5094694;28;20031;-59
2021/04/29 03:09:41;;;;;;;3.28;1.25;;;;;;;;;;5096587;28;20472;-59
2021/04/29 03:12:07;;;;;;;2.13;1.15;;;;;;;;;;5094610;28;20031;-59
2021/04/29 03:14:34;;;;;;;1.70;0.85;;;;;;;;;;5095760;28;20424;-59
2021/04/29 03:17:00;;;;;;;1.30;0.90;;;;;;;;;;5096600;28;20020;-59
2021/04/29 03:19:26;;;;;;;0.80;0.40;;;;;;;;;;5096562;28;20104;-59
2021/04/29 03:21:52;;;;;;;1.27;0.63;;;;;;;;;;5094478;28;20433;-59
2021/04/29 03:24:18;;;;;;;1.13;0.45;;;;;;;;;;5096235;28;20048;-59
2021/04/29 03:26:45;;;;;;;1.65;0.60;;;;;;;;;;5095895;28;20024;-59
2021/04/29 03:29:11;;;;;;;1.15;0.60;;;;;;;;;;5096370;28;20035;-59
2021/04/29 03:31:39;;;;;;;1.45;0.80;;;;;;;;;;5095900;28;20035;-59
2021/04/29 03:34:05;;;;;;;1.95;0.70;;;;;;;;;;5095553;28;20500;-59
2021/04/29 03:36:31;;;;;;;0.93;0.45;;;;;;;;;;5096399;28;20028;-59
2021/04/29 03:38:57;;;;;;;1.20;0.88;;;;;;;;;;5095784;28;20020;-60
2021/04/29 03:41:23;;;;;;;1.30;0.70;;;;;;;;;;5093904;28;20028;-59
2021/04/29 03:43:49;;;;;;;0.98;0.57;;;;;;;;;;5095677;28;20024;-59
2021/04/29 03:46:15;;;;;;;2.60;0.70;;;;;;;;;;5095246;28;20373;-59
2021/04/29 03:48:41;;;;;;;3.70;0.93;;;;;;;;;;5096392;28;20078;-59
2021/04/29 03:51:07;;;;;;;1.23;0.70;;;;;;;;;;5095759;28;20081;-59
2021/04/29 03:53:33;;;;;;;1.08;0.60;;;;;;;;;;5095441;28;20131;-59
2021/04/29 03:55:59;;;;;;;1.23;0.68;;;;;;;;;;5095484;28;20036;-59
2021/04/29 03:58:25;;;;;;;1.58;0.52;;;;;;;;;;5095727;28;20039;-59
2021/04/29 04:00:54;;;;;;;1.50;0.70;;;;;;;;;;5094064;28;20032;-59
2021/04/29 04:03:20;;;;;;;2.35;0.65;;;;;;;;;;5094430;28;20024;-59
2021/04/29 04:05:46;;;;;;;1.75;0.50;;;;;;;;;;5095433;28;20083;-59
2021/04/29 04:08:12;;;;;;;1.17;0.68;;;;;;;;;;5093984;28;20115;-59
2021/04/29 04:10:38;;;;;;;1.05;0.75;;;;;;;;;;5095002;28;20483;-59
2021/04/29 04:13:04;;;;;;;0.90;0.40;;;;;;;;;;5095022;28;20104;-59
2021/04/29 04:15:30;;;;;;;0.82;0.60;;;;;;;;;;5094197;28;20052;-59
2021/04/29 04:17:56;;;;;;;1.08;0.57;;;;;;;;;;5094998;28;20031;-59
2021/04/29 04:20:22;;;;;;;0.77;0.40;;;;;;;;;;5094833;28;20389;-59
2021/04/29 04:22:49;;;;;;;3.17;0.70;;;;;;;;;;5094809;28;20032;-59
2021/04/29 04:25:15;;;;;;;1.10;0.45;;;;;;;;;;5095064;28;20059;-59
2021/04/29 04:27:41;;;;;;;1.30;0.82;;;;;;;;;;5094893;28;20027;-59
2021/04/29 04:30:08;;;;;;;0.55;0.30;;;;;;;;;;5094667;28;20050;-59
2021/04/29 04:32:34;;;;;;;1.92;0.65;;;;;;;;;;5093371;28;20034;-59
2021/04/29 04:35:03;;;;;;;0.85;0.45;;;;;;;;;;5094682;28;20115;-59
2021/04/29 04:37:29;;;;;;;0.95;0.47;;;;;;;;;;5094599;28;20031;-59
2021/04/29 04:39:55;;;;;;;1.75;0.85;;;;;;;;;;5092927;28;20047;-59
2021/04/29 04:42:22;;;;;;;1.10;0.43;;;;;;;;;;5094988;28;20024;-59
2021/04/29 04:44:48;;;;;;;11.13;0.77;;;;;;;;;;5093976;28;20024;-59
2021/04/29 04:47:15;;;;;;;1.67;0.70;;;;;;;;;;5094495;28;20082;-59
2021/04/29 04:49:41;;;;;;;2.55;1.15;;;;;;;;;;5095285;28;20036;-59
2021/04/29 04:52:07;;;;;;;1.50;0.90;;;;;;;;;;5093273;28;20342;-59
2021/04/29 04:54:34;;;;;;;1.17;0.80;;;;;;;;;;5091935;28;20044;-59
2021/04/29 04:57:00;;;;;;;1.77;0.88;;;;;;;;;;5094140;28;20463;-59
2021/04/29 04:59:26;;;;;;;1.27;0.77;;;;;;;;;;5095047;28;20092;-59
2021/04/29 05:01:52;;;;;;;2.20;1.65;;;;;;;;;;5094315;28;20093;-59
2021/04/29 05:04:18;;;;;;;1.65;0.98;;;;;;;;;;5094998;28;20020;-59
2021/04/29 05:06:44;;;;;;;1.45;0.93;;;;;;;;;;5094367;28;20024;-59
2021/04/29 05:09:10;;;;;;;1.83;0.93;;;;;;;;;;5094238;28;20026;-59
2021/04/29 05:11:36;;;;;;;2.15;1.33;;;;;;;;;;5094397;28;20035;-59
2021/04/29 05:14:02;;;;;;;2.47;1.55;;;;;;;;;;5094289;28;20024;-59
2021/04/29 05:16:28;;;;;;;1.92;0.98;;;;;;;;;;5092928;28;20027;-59
2021/04/29 05:18:54;;;;;;;3.80;1.50;;;;;;;;;;5093861;28;20031;-60
2021/04/29 05:21:20;;;;;;;2.10;1.20;;;;;;;;;;5092702;28;20028;-60
2021/04/29 05:23:46;;;;;;;2.33;1.58;;;;;;;;;;5094195;28;20450;-60
2021/04/29 05:26:13;;;;;;;2.30;1.45;;;;;;;;;;5092261;28;20389;-59
2021/04/29 05:28:39;;;;;;;2.17;1.17;;;;;;;;;;5094634;28;20356;-60
2021/04/29 05:31:05;;;;;;;2.55;1.35;;;;;;;;;;5093868;28;20035;-57
2021/04/29 05:33:31;;;;;;;2.60;1.52;;;;;;;;;;5092621;28;20053;-57
2021/04/29 05:35:57;;;;;;;4.18;1.65;;;;;;;;;;5093635;28;20030;-57
2021/04/29 05:38:23;;;;;;;3.72;1.67;;;;;;;;;;5093010;28;20031;-57
2021/04/29 05:40:49;;;;;;;1.95;1.30;;;;;;;;;;5092471;28;20031;-57
2021/04/29 05:43:17;;;;;;;2.70;1.75;;;;;;;;;;5093487;28;20016;-57
2021/04/29 05:45:43;;;;;;;5.40;1.73;;;;;;;;;;5092535;28;20030;-57
2021/04/29 05:48:09;;;;;;;3.30;1.52;;;;;;;;;;5094564;28;20055;-57
2021/04/29 05:50:36;;;;;;;2.70;1.85;;;;;;;;;;5093756;28;20039;-57
2021/04/29 05:53:02;;;;;;;2.20;1.60;;;;;;;;;;5093860;28;20131;-57
2021/04/29 05:55:28;;;;;;;3.42;2.33;;;;;;;;;;5093214;28;20066;-57
2021/04/29 05:57:57;;;;;;;4.85;2.50;;;;;;;;;;5091824;28;20213;-58
2021/04/29 06:00:23;;;;;;;3.63;2.28;;;;;;;;;;5093484;28;20024;-58
2021/04/29 06:02:49;;;;;;;2.53;1.77;;;;;;;;;;5093072;28;20137;-58
2021/04/29 06:05:15;;;;;;;3.17;1.92;;;;;;;;;;5097250;28;20032;-58
2021/04/29 06:07:41;;;;;;;3.05;2.25;;;;;;;;;;5100188;28;20039;-58
2021/04/29 06:10:07;;;;;;;4.47;1.90;;;;;;;;;;5100230;28;20079;-58
2021/04/29 06:12:33;;;;;;;5.55;2.70;;;;;;;;;;5100008;28;20035;-58
2021/04/29 06:14:59;;;;;;;5.65;2.42;;;;;;;;;;5100362;28;20469;-58
2021/04/29 06:17:26;;;;;;;6.68;2.03;;;;;;;;;;5098737;28;20032;-58
2021/04/29 06:19:52;;;;;;;7.95;2.42;;;;;;;;;;5099202;28;20059;-58
2021/04/29 06:22:18;;;;;;;3.17;2.15;;;;;;;;;;5100492;28;20020;-58
2021/04/29 06:24:44;;;;;;;3.03;2.25;;;;;;;;;;5100794;28;20062;-58
2021/04/29 06:27:10;;;;;;;2.58;2.17;;;;;;;;;;5098474;28;20028;-58
2021/04/29 06:29:36;;;;;;;3.60;2.30;;;;;;;;;;5099031;28;20032;-58
2021/04/29 06:32:02;;;;;;;5.28;2.20;;;;;;;;;;5098703;28;20415;-59
2021/04/29 06:34:31;;;;;;;3.67;2.50;;;;;;;;;;5099815;28;20020;-59
2021/04/29 06:36:57;;;;;;;3.92;2.45;;;;;;;;;;5100004;28;20035;-59
2021/04/29 06:39:25;;;;;;;6.13;2.88;;;;;;;;;;5100203;28;20024;-59
2021/04/29 06:41:51;;;;;;;5.70;3.00;;;;;;;;;;5099905;28;20093;-59
2021/04/29 06:44:17;;;;;;;3.63;2.67;;;;;;;;;;5099820;28;20024;-59
2021/04/29 06:46:45;;;;;;;4.78;2.78;;;;;;;;;;5100193;28;20024;-59
2021/04/29 06:49:12;;;;;;;4.03;2.33;;;;;;;;;;5100460;28;20023;-59
2021/04/29 06:51:38;;;;;;;4.32;3.28;;;;;;;;;;5100177;28;20039;-58
2021/04/29 06:54:06;;;;;;;4.07;3.22;;;;;;;;;;5097976;28;20125;-58
2021/04/29 06:56:32;;;;;;;3.60;2.80;;;;;;;;;;5099711;28;20043;-59
2021/04/29 06:58:58;;;;;;;6.93;3.40;;;;;;;;;;5098567;28;20024;-59
2021/04/29 07:01:24;;;;;;;3.67;3.05;;;;;;;;;;5082031;28;20350;-59
2021/04/29 07:03:50;;;;;;;8.85;2.92;;;;;;;;;;5099669;28;20123;-59
2021/04/29 07:06:16;;;;;;;4.22;2.70;;;;;;;;;;5082628;28;20035;-58
2021/04/29 07:08:42;;;;;;;6.78;2.80;;;;;;;;;;5100216;28;20028;-59
2021/04/29 07:11:08;;;;;;;5.07;3.15;;;;;;;;;;5100098;28;20068;-58
2021/04/29 07:13:34;;;;;;;2.78;2.28;;;;;;;;;;5099666;28;20065;-59
2021/04/29 07:16:00;;;;;;;7.63;2.90;;;;;;;;;;5097274;28;20028;-59
2021/04/29 07:18:26;;;;;;;3.80;2.97;;;;;;;;;;5096467;28;20020;-58
2021/04/29 07:20:54;;;;;;;5.80;3.58;;;;;;;;;;5097035;28;20071;-58
2021/04/29 07:23:20;;;;;;;5.53;3.05;;;;;;;;;;5096331;28;20081;-59
2021/04/29 07:25:46;;;;;;;4.60;3.67;;;;;;;;;;5096080;28;20031;-58
2021/04/29 07:28:12;;;;;;;5.53;3.35;;;;;;;;;;5095201;28;20343;-59
2021/04/29 07:30:39;;;;;;;6.40;4.25;;;;;;;;;;5096359;28;20043;-58
2021/04/29 07:33:08;;;;;;;3.92;3.20;;;;;;;;;;5095878;28;20028;-59
2021/04/29 07:35:34;;;;;;;3.75;3.00;;;;;;;;;;5095967;28;20031;-58
2021/04/29 07:38:02;;;;;;;8.85;3.58;;;;;;;;;;5096184;28;20024;-58
2021/04/29 07:40:28;;;;;;;3.65;3.10;;;;;;;;;;5096038;28;20024;-58
2021/04/29 07:42:54;;;;;;;7.53;3.88;;;;;;;;;;5095373;28;20081;-59
2021/04/29 07:45:20;;;;;;;4.68;3.70;;;;;;;;;;5095804;28;20100;-59
2021/04/29 07:47:46;;;;;;;4.32;3.92;;;;;;;;;;5094800;28;20169;-58
2021/04/29 07:50:14;;;;;;;7.00;5.30;;;;;;;;;;5094844;28;20179;-59
2021/04/29 07:52:41;;;;;;;7.53;4.65;;;;;;;;;;5095238;28;20516;-59
2021/04/29 07:55:08;;;;;;;6.93;4.85;;;;;;;;;;5095909;28;20028;-59
2021/04/29 07:57:34;;;;;;;7.80;4.75;;;;;;;;;;5095000;28;20115;-59
2021/04/29 08:00:01;;;;;;;6.03;4.63;;;;;;;;;;5095849;28;20099;-59
2021/04/29 08:02:27;;;;;;;9.70;4.85;;;;;;;;;;5095480;28;20365;-59
2021/04/29 08:04:53;;;;;;;6.07;4.97;;;;;;;;;;5094995;28;20458;-59
2021/04/29 08:07:19;;;;;;;5.22;4.25;;;;;;;;;;5094093;28;20028;-59
2021/04/29 08:09:45;;;;;;;6.07;5.35;;;;;;;;;;5095021;28;20036;-59
2021/04/29 08:12:11;;;;;;;5.43;4.88;;;;;;;;;;5094983;28;20081;-59
2021/04/29 08:14:37;;;;;;;5.40;4.72;;;;;;;;;;5094840;28;20055;-59
2021/04/29 08:17:03;;;;;;;6.00;4.75;;;;;;;;;;5095218;28;20056;-60
2021/04/29 08:19:29;;;;;;;6.82;4.45;;;;;;;;;;5095643;28;20062;-59
2021/04/29 08:21:55;;;;;;;9.25;4.72;;;;;;;;;;5094989;28;20111;-59
2021/04/29 08:24:21;;;;;;;6.20;5.43;;;;;;;;;;5095132;28;20028;-59
2021/04/29 08:26:47;;;;;;;6.50;5.25;;;;;;;;;;5094653;28;20058;-59
2021/04/29 08:29:13;;;;;;;6.22;5.20;;;;;;;;;;5095541;28;20088;-59
2021/04/29 08:31:39;;;;;;;9.35;5.25;;;;;;;;;;5094735;28;20043;-59
2021/04/29 08:34:05;;;;;;;8.73;5.35;;;;;;;;;;5094727;28;20035;-59
2021/04/29 08:36:32;;;;;;;6.78;5.45;;;;;;;;;;5094884;28;20314;-59
2021/04/29 08:39:02;;;;;;;6.78;5.95;;;;;;;;;;5095150;28;20024;-59
2021/04/29 08:41:28;;;;;;;10.48;5.47;;;;;;;;;;5095328;28;20020;-59
2021/04/29 08:43:55;;;;;;;7.28;5.68;;;;;;;;;;5094312;28;20034;-59
2021/04/29 08:46:21;;;;;;;6.65;5.65;;;;;;;;;;5094554;28;20020;-59
2021/04/29 08:48:47;;;;;;;7.15;5.47;;;;;;;;;;5093072;28;20111;-59
2021/04/29 08:51:13;;;;;;;7.78;5.72;;;;;;;;;;5093924;28;20470;-59
2021/04/29 08:53:39;;;;;;;5.65;5.05;;;;;;;;;;5092369;28;20054;-59
2021/04/29 08:56:05;;;;;;;6.57;5.07;;;;;;;;;;5094322;28;20397;-59
2021/04/29 08:58:31;;;;;;;9.77;5.50;;;;;;;;;;5094853;28;20039;-59
2021/04/29 09:01:01;;;;;;;12.30;5.75;;;;;;;;;;5094471;28;20028;-59
2021/04/29 09:03:28;;;;;;;6.23;5.07;;;;;;;;;;5094302;28;20465;-59
2021/04/29 09:05:58;;;;;;;6.88;5.30;;;;;;;;;;5094220;28;20031;-59
2021/04/29 09:08:27;;;;;;;5.75;4.85;;;;;;;;;;5094147;28;20373;-59
2021/04/29 09:11:05;;;;;;;6.72;5.88;;;;;;;;;;5094565;28;20039;-59
2021/04/29 09:13:31;;;;;;;6.63;5.40;;;;;;;;;;5093299;28;20020;-59
2021/04/29 09:16:04;;;;;;;5.25;4.75;;;;;;;;;;5094050;28;20031;-59
2021/04/29 09:18:31;;;;;;;8.35;5.45;;;;;;;;;;5094812;28;20031;-59
2021/04/29 09:20:59;;;;;;;8.52;4.47;;;;;;;;;;5092989;28;20123;-59
2021/04/29 09:23:33;;;;;;;6.10;5.45;;;;;;;;;;5093846;28;20055;-59
2021/04/29 09:25:59;;;;;;;5.78;4.45;;;;;;;;;;5093444;28;20024;-59
2021/04/29 09:28:39;;;;;;;6.68;4.80;;;;;;;;;;5094216;28;20096;-59
2021/04/29 09:31:06;;;;;;;7.85;5.40;;;;;;;;;;5094110;28;20036;-59
2021/04/29 09:33:33;;;;;;;6.93;4.28;;;;;;;;;;5093658;28;20032;-59
2021/04/29 09:35:59;;;;;;;5.05;4.53;;;;;;;;;;5093541;28;20103;-59
2021/04/29 09:38:31;;;;;;;4.88;4.35;;;;;;;;;;5093235;28;20032;-59
2021/04/29 09:40:57;;;;;;;7.18;5.05;;;;;;;;;;5093747;28;20028;-59
2021/04/29 09:43:23;;;;;;;5.55;4.68;;;;;;;;;;5093226;28;20103;-59
2021/04/29 09:45:54;;;;;;;5.07;3.28;;;;;;;;;;5093317;28;20031;-59
2021/04/29 09:48:22;;;;;;;3.85;3.10;;;;;;;;;;5093750;28;20020;-59
2021/04/29 09:50:51;;;;;;;6.45;3.72;;;;;;;;;;5093959;28;20046;-59
2021/04/29 09:53:17;;;;;;;5.85;4.57;;;;;;;;;;5093503;28;20051;-59
2021/04/29 09:55:45;;;;;;;5.35;4.50;;;;;;;;;;5093323;28;20028;-59
2021/04/29 09:58:16;;;;;;;7.90;5.30;;;;;;;;;;5093477;28;20020;-59
2021/04/29 10:00:42;;;;;;;8.68;5.07;;;;;;;;;;5094147;28;20531;-59
2021/04/29 10:03:08;;;;;;;8.23;5.43;;;;;;;;;;5093762;28;20016;-59
2021/04/29 10:05:38;;;;;;;6.38;5.43;;;;;;;;;;5093653;28;20024;-59
2021/04/29 10:08:05;;;;;;;6.13;5.45;;;;;;;;;;5093411;28;20070;-59
2021/04/29 10:10:42;;;;;;;7.50;5.13;;;;;;;;;;5093556;28;20082;-59
2021/04/29 10:13:09;;;;;;;10.55;5.78;;;;;;;;;;5093280;28;20348;-59
2021/04/29 10:15:37;;;;;;;6.53;5.78;;;;;;;;;;5093279;28;20091;-59
2021/04/29 10:18:03;;;;;;;6.65;5.25;;;;;;;;;;5093470;28;20393;-59
2021/04/29 10:20:31;;;;;;;7.15;6.00;;;;;;;;;;5093262;28;20038;-59
2021/04/29 10:22:57;;;;;;;5.85;5.28;;;;;;;;;;5093481;28;20024;-59
2021/04/29 10:25:27;;;;;;;8.82;6.32;;;;;;;;;;5093484;28;20035;-59
2021/04/29 10:27:55;;;;;;;7.15;5.35;;;;;;;;;;5093512;28;20031;-59
2021/04/29 10:30:29;;;;;;;7.88;5.03;;;;;;;;;;5093365;28;20064;-59
2021/04/29 10:32:56;;;;;;;5.85;5.22;;;;;;;;;;5093642;28;20026;-59
2021/04/29 10:35:23;;;;;;;7.20;5.30;;;;;;;;;;5093525;28;20416;-59
2021/04/29 10:38:00;;;;;;;7.90;5.45;;;;;;;;;;5092909;28;20031;-59
2021/04/29 10:40:36;;;;;;;6.03;4.97;;;;;;;;;;5093366;28;20024;-59
2021/04/29 10:43:02;;;;;;;6.43;5.15;;;;;;;;;;5093296;28;20074;-59
2021/04/29 10:45:28;;;;;;;6.57;5.32;;;;;;;;;;5093841;28;20429;-59
2021/04/29 10:48:07;;;;;;;7.22;4.80;;;;;;;;;;5093382;28;20021;-59
2021/04/29 10:50:43;;;;;;;7.78;4.97;;;;;;;;;;5093096;28;20454;-60
2021/04/29 10:53:09;;;;;;;10.05;5.20;;;;;;;;;;5095160;28;20048;-59
2021/04/29 10:55:39;;;;;;;6.85;4.72;;;;;;;;;;5096628;28;20036;-59
2021/04/29 10:58:06;;;;;;;6.65;4.78;;;;;;;;;;5096486;28;20028;-59
2021/04/29 11:00:34;;;;;;;5.82;4.38;;;;;;;;;;5097164;28;20028;-59
2021/04/29 11:03:01;;;;;;;9.25;4.50;;;;;;;;;;5096936;28;20024;-59
2021/04/29 11:05:28;;;;;;;7.30;4.43;;;;;;;;;;5096966;28;20065;-59
2021/04/29 11:07:54;;;;;;;5.18;4.68;;;;;;;;;;5096674;28;20024;-59
2021/04/29 11:10:23;;;;;;;7.07;4.45;;;;;;;;;;5096748;28;20521;-59
2021/04/29 11:12:50;;;;;;;6.40;4.20;;;;;;;;;;5096972;28;20027;-59
2021/04/29 11:15:22;;;;;;;6.18;4.50;;;;;;;;;;5096244;28;20031;-59
2021/04/29 11:17:59;;;;;;;5.97;3.78;;;;;;;;;;5096190;28;20020;-59
2021/04/29 11:20:25;;;;;;;6.88;4.05;;;;;;;;;;5096640;28;20051;-59
2021/04/29 11:22:55;;;;;;;6.45;3.40;;;;;;;;;;5096524;28;20453;-60
2021/04/29 11:25:20;;;;;;;3.93;2.70;;;;;;;;;;5096280;28;20056;-60
2021/04/29 11:27:53;;;;;;;5.63;3.70;;;;;;;;;;5095940;28;20511;-60
2021/04/29 11:30:19;;;;;;;5.60;3.25;;;;;;;;;;5095997;28;20038;-60
2021/04/29 11:33:04;;;;;;;4.15;3.75;;;;;;;;;;5096021;28;20024;-59
2021/04/29 11:35:33;;;;;;;4.63;3.08;;;;;;;;;;5095851;28;20085;-60
2021/04/29 11:37:59;;;;;;;6.32;3.08;;;;;;;;;;5096492;28;20444;-60
2021/04/29 11:40:26;;;;;;;4.82;3.22;;;;;;;;;;5095607;28;20097;-59
2021/04/29 11:42:55;;;;;;;6.55;4.00;;;;;;;;;;5095680;28;20020;-60
2021/04/29 11:45:25;;;;;;;4.15;2.97;;;;;;;;;;5096108;28;20438;-59
2021/04/29 11:47:57;;;;;;;4.57;3.22;;;;;;;;;;5095532;28;20028;-59
2021/04/29 11:50:25;;;;;;;3.75;2.55;;;;;;;;;;5095753;28;20032;-60
2021/04/29 11:53:01;;;;;;;3.85;2.95;;;;;;;;;;5095142;28;20048;-60
2021/04/29 11:55:27;;;;;;;8.10;4.13;;;;;;;;;;5095060;28;20438;-59
2021/04/29 11:57:59;;;;;;;4.22;3.15;;;;;;;;;;5095366;28;20031;-59
2021/04/29 12:00:30;;;;;;;4.22;2.88;;;;;;;;;;5095461;28;20028;-59
2021/04/29 12:02:59;;;;;;;9.88;3.75;;;;;;;;;;5095073;28;20020;-59
2021/04/29 12:05:36;;;;;;;4.40;3.20;;;;;;;;;;5095131;28;20201;-59
2021/04/29 12:08:03;;;;;;;3.88;3.38;;;;;;;;;;5095080;28;20124;-59
2021/04/29 12:10:45;;;;;;;4.82;2.80;;;;;;;;;;5095145;28;20112;-59
2021/04/29 12:13:11;;;;;;;3.78;2.67;;;;;;;;;;5093529;28;20016;-59
2021/04/29 12:15:37;;;;;;;3.25;2.55;;;;;;;;;;5093926;28;20078;-59
2021/04/29 12:18:04;;;;;;;3.75;2.63;;;;;;;;;;5094878;28;20138;-59
2021/04/29 12:20:30;;;;;;;11.05;2.75;;;;;;;;;;5095367;28;20365;-60
2021/04/29 12:22:57;;;;;;;5.72;2.40;;;;;;;;;;5095181;28;20463;-59
2021/04/29 12:25:23;;;;;;;3.95;2.85;;;;;;;;;;5095173;28;20020;-59
2021/04/29 12:27:49;;;;;;;3.35;2.75;;;;;;;;;;5094625;28;20012;-59
2021/04/29 12:30:15;;;;;;;3.85;2.90;;;;;;;;;;5094559;28;20115;-60
2021/04/29 12:32:45;;;;;;;3.55;2.45;;;;;;;;;;5094430;28;20093;-59
2021/04/29 12:35:12;;;;;;;2.95;2.15;;;;;;;;;;5094623;28;20020;-59
2021/04/29 12:37:50;;;;;;;8.00;2.40;;;;;;;;;;5094777;28;20016;-59
2021/04/29 12:40:30;;;;;;;3.40;1.67;;;;;;;;;;5094698;28;20127;-59
2021/04/29 12:43:09;;;;;;;7.45;2.67;;;;;;;;;;5094029;28;20488;-59
2021/04/29 12:45:49;;;;;;;2.95;2.42;;;;;;;;;;5094196;28;20081;-59
2021/04/29 12:48:22;;;;;;;4.40;2.70;;;;;;;;;;5094143;28;20048;-59
2021/04/29 12:50:57;;;;;;;6.20;2.58;;;;;;;;;;5094255;28;20039;-59
2021/04/29 12:53:23;;;;;;;3.85;2.42;;;;;;;;;;5092727;28;20044;-59
2021/04/29 12:55:49;;;;;;;4.75;3.15;;;;;;;;;;5094561;28;20035;-59
2021/04/29 12:58:17;;;;;;;5.95;3.03;;;;;;;;;;5092500;28;20385;-58
2021/04/29 13:00:49;;;;;;;3.65;2.45;;;;;;;;;;5094333;28;20035;-59
2021/04/29 13:03:15;;;;;;;4.93;3.67;;;;;;;;;;5093963;28;20030;-58
2021/04/29 13:05:41;;;;;;;4.43;2.63;;;;;;;;;;5093756;28;20102;-59
2021/04/29 13:08:07;;;;;;;5.28;3.00;;;;;;;;;;5094409;28;20442;-59
2021/04/29 13:10:41;;;;;;;3.60;2.47;;;;;;;;;;5092591;28;20036;-59
2021/04/29 13:13:07;;;;;;;3.25;2.00;;;;;;;;;;5093767;28;20369;-59
2021/04/29 13:15:33;;;;;;;6.30;3.10;;;;;;;;;;5093156;28;20035;-59
2021/04/29 13:18:00;;;;;;;2.53;1.92;;;;;;;;;;5092747;28;20338;-59
2021/04/29 13:20:30;;;;;;;2.70;1.85;;;;;;;;;;5093995;28;20028;-59
2021/04/29 13:22:56;;;;;;;5.17;3.20;;;;;;;;;;5094014;28;20020;-59
2021/04/29 13:25:24;;;;;;;3.75;3.00;;;;;;;;;;5093670;28;20251;-59
2021/04/29 13:27:51;;;;;;;2.67;2.10;;;;;;;;;;5092277;28;20020;-59
2021/04/29 13:30:18;;;;;;;3.88;2.58;;;;;;;;;;5093482;28;20032;-59
2021/04/29 13:32:44;;;;;;;6.75;2.22;;;;;;;;;;5093492;28;20028;-59
2021/04/29 13:35:11;;;;;;;3.72;2.80;;;;;;;;;;5093791;28;20028;-59
2021/04/29 13:37:38;;;;;;;3.95;3.15;;;;;;;;;;5093142;28;20026;-59
2021/04/29 13:40:06;;;;;;;5.28;2.33;;;;;;;;;;5094183;28;20036;-59
2021/04/29 13:42:33;;;;;;;4.57;2.95;;;;;;;;;;5093404;28;20026;-59
2021/04/29 13:44:59;;;;;;;4.93;3.70;;;;;;;;;;5094150;28;20056;-59
2021/04/29 13:47:25;;;;;;;5.97;4.35;;;;;;;;;;5093710;28;20034;-59
2021/04/29 13:49:51;;;;;;;4.00;3.05;;;;;;;;;;5093642;28;20092;-59
2021/04/29 13:52:17;;;;;;;7.93;3.35;;;;;;;;;;5093508;28;20032;-59
2021/04/29 13:54:43;;;;;;;4.65;2.95;;;;;;;;;;5091802;28;20044;-59
2021/04/29 13:57:09;;;;;;;3.33;2.58;;;;;;;;;;5093758;28;20024;-59
2021/04/29 13:59:36;;;;;;;3.88;2.47;;;;;;;;;;5092761;28;20034;-59
2021/04/29 14:02:02;;;;;;;2.28;1.77;;;;;;;;;;5093186;28;20024;-59
2021/04/29 14:04:28;;;;;;;3.10;2.28;;;;;;;;;;5093174;28;20037;-59
2021/04/29 14:06:54;;;;;;;3.13;2.50;;;;;;;;;;5091926;28;20325;-59
2021/04/29 14:09:20;;;;;;;3.97;2.45;;;;;;;;;;5092875;28;20096;-59
2021/04/29 14:11:49;;;;;;;3.47;2.47;;;;;;;;;;5093460;28;20098;-59
2021/04/29 14:14:15;;;;;;;5.30;3.08;;;;;;;;;;5093089;28;20377;-59
2021/04/29 14:16:41;;;;;;;11.45;3.00;;;;;;;;;;5093182;28;20024;-59
2021/04/29 14:19:07;;;;;;;3.72;2.85;;;;;;;;;;5093836;28;20035;-59
2021/04/29 14:21:33;;;;;;;4.82;2.90;;;;;;;;;;5093143;28;20100;-59
2021/04/29 14:23:59;;;;;;;3.53;2.70;;;;;;;;;;5093039;28;20202;-59
2021/04/29 14:26:25;;;;;;;5.10;3.00;;;;;;;;;;5096303;28;20032;-59
2021/04/29 14:28:51;;;;;;;3.75;2.83;;;;;;;;;;5096765;28;20047;-59
2021/04/29 14:31:17;;;;;;;4.55;3.13;;;;;;;;;;5097766;28;20345;-59
2021/04/29 14:33:43;;;;;;;5.72;3.05;;;;;;;;;;5097881;28;20028;-59
2021/04/29 14:36:09;;;;;;;4.57;3.15;;;;;;;;;;5096928;28;20039;-59
2021/04/29 14:38:35;;;;;;;3.78;2.60;;;;;;;;;;5096979;28;20021;-59
2021/04/29 14:41:02;;;;;;;3.67;3.20;;;;;;;;;;5097622;28;20047;-59
2021/04/29 14:43:28;;;;;;;4.20;2.55;;;;;;;;;;5096423;28;20024;-59